Time;durP1;ratioP1;P1;durP2;ratioP2;P2;SDS_P1;SDS_P2;PMS_P1;PMS_P2;Temp;Humidity;BMP_temperature;BMP_pressure;BME280_temperature;BME280_humidity;BME280_pressure;Samples;Min_cycle;Max_cycle;Signal;HPM_P1;HPM_P2
2021/12/09 00:01:42;;;;;;;14.35;8.52;;;;;;;;;;5101580;28;20484;-80
2021/12/09 00:04:13;;;;;;;12.80;7.90;;;;;;;;;;5102698;28;20044;-81
2021/12/09 00:06:42;;;;;;;12.35;7.75;;;;;;;;;;5103574;28;20107;-82
2021/12/09 00:09:10;;;;;;;16.15;8.73;;;;;;;;;;5110447;28;20043;-81
2021/12/09 00:11:43;;;;;;;12.15;8.15;;;;;;;;;;5110052;28;20400;-81
2021/12/09 00:14:10;;;;;;;16.10;8.90;;;;;;;;;;5104061;28;20071;-81
2021/12/09 00:16:37;;;;;;;12.55;7.65;;;;;;;;;;5103665;28;20400;-82
2021/12/09 00:19:03;;;;;;;13.27;7.30;;;;;;;;;;5102690;28;20083;-81
2021/12/09 00:21:31;;;;;;;11.40;6.95;;;;;;;;;;5103682;28;20531;-81
2021/12/09 00:23:58;;;;;;;11.45;7.20;;;;;;;;;;5104235;28;20424;-81
2021/12/09 00:26:24;;;;;;;11.82;7.22;;;;;;;;;;5104047;28;20052;-82
2021/12/09 00:28:51;;;;;;;12.90;7.80;;;;;;;;;;5104260;28;20078;-80
2021/12/09 00:31:18;;;;;;;11.82;7.35;;;;;;;;;;5104542;28;20075;-80
2021/12/09 00:33:46;;;;;;;11.80;7.25;;;;;;;;;;5105220;28;20044;-80
2021/12/09 00:36:15;;;;;;;12.63;6.70;;;;;;;;;;5102316;28;20040;-82
2021/12/09 00:38:43;;;;;;;9.82;6.15;;;;;;;;;;5107968;28;20684;-81
2021/12/09 00:41:12;;;;;;;11.20;6.43;;;;;;;;;;5100903;28;20048;-82
2021/12/09 00:43:40;;;;;;;12.18;6.95;;;;;;;;;;5106065;28;20055;-83
2021/12/09 00:46:07;;;;;;;11.13;7.03;;;;;;;;;;5104455;28;20064;-80
2021/12/09 00:48:35;;;;;;;9.73;6.82;;;;;;;;;;5108854;28;20055;-84
2021/12/09 00:51:02;;;;;;;12.45;7.03;;;;;;;;;;5107933;28;20043;-82
2021/12/09 00:53:29;;;;;;;10.38;6.25;;;;;;;;;;5110149;28;20044;-83
2021/12/09 00:55:57;;;;;;;8.93;5.40;;;;;;;;;;5105777;28;20076;-82
2021/12/09 00:58:23;;;;;;;10.57;6.50;;;;;;;;;;5106213;28;20044;-82
2021/12/09 01:00:50;;;;;;;9.38;6.03;;;;;;;;;;5109055;28;20051;-84
2021/12/09 01:03:17;;;;;;;9.50;6.00;;;;;;;;;;5105750;28;20043;-81
2021/12/09 01:05:45;;;;;;;10.15;5.78;;;;;;;;;;5103758;28;20071;-83
2021/12/09 01:08:12;;;;;;;9.00;6.13;;;;;;;;;;5092554;28;20044;-82
2021/12/09 01:10:39;;;;;;;9.38;5.80;;;;;;;;;;5104411;28;20078;-81
2021/12/09 01:13:07;;;;;;;11.65;6.18;;;;;;;;;;5101581;28;20086;-81
2021/12/09 01:15:34;;;;;;;12.93;6.68;;;;;;;;;;5102010;28;20044;-81
2021/12/09 01:18:00;;;;;;;15.02;8.27;;;;;;;;;;5101993;28;20071;-81
2021/12/09 01:20:27;;;;;;;13.60;7.18;;;;;;;;;;5103071;28;20047;-83
2021/12/09 01:22:54;;;;;;;14.40;8.20;;;;;;;;;;5103014;28;20047;-83
2021/12/09 01:25:22;;;;;;;15.75;8.07;;;;;;;;;;5101031;28;20066;-81
2021/12/09 01:27:51;;;;;;;14.05;7.32;;;;;;;;;;5108619;28;20068;-81
2021/12/09 01:30:20;;;;;;;10.75;6.40;;;;;;;;;;5108357;28;20105;-82
2021/12/09 01:32:51;;;;;;;11.90;6.93;;;;;;;;;;5107207;28;20073;-81
2021/12/09 01:35:18;;;;;;;14.05;7.10;;;;;;;;;;5106645;28;20056;-82
2021/12/09 01:37:46;;;;;;;12.40;6.93;;;;;;;;;;5106596;28;20055;-82
2021/12/09 01:40:16;;;;;;;12.65;7.28;;;;;;;;;;5105985;28;20074;-82
2021/12/09 01:42:44;;;;;;;14.52;7.63;;;;;;;;;;5104995;28;20072;-85
2021/12/09 01:45:12;;;;;;;16.67;8.35;;;;;;;;;;5101028;28;20481;-84
2021/12/09 01:47:40;;;;;;;17.40;8.50;;;;;;;;;;5108112;28;20048;-82
2021/12/09 01:50:09;;;;;;;17.80;8.88;;;;;;;;;;5104116;28;20067;-82
2021/12/09 01:52:35;;;;;;;15.77;8.52;;;;;;;;;;5103488;28;20075;-80
2021/12/09 01:55:02;;;;;;;12.13;6.90;;;;;;;;;;5101159;28;20059;-82
2021/12/09 01:57:28;;;;;;;11.38;6.78;;;;;;;;;;5101639;28;20046;-83
2021/12/09 01:59:55;;;;;;;12.52;6.80;;;;;;;;;;5101166;28;20040;-82
2021/12/09 02:02:21;;;;;;;13.30;6.95;;;;;;;;;;5101373;28;20116;-81
2021/12/09 02:04:49;;;;;;;14.13;6.50;;;;;;;;;;5099522;28;20040;-79
2021/12/09 02:07:16;;;;;;;10.88;6.13;;;;;;;;;;5097797;28;20083;-80
2021/12/09 02:09:43;;;;;;;13.63;6.65;;;;;;;;;;5101123;28;20432;-81
2021/12/09 02:12:11;;;;;;;10.02;6.10;;;;;;;;;;5108078;28;20094;-81
2021/12/09 02:14:41;;;;;;;11.05;6.20;;;;;;;;;;5103127;28;20506;-80
2021/12/09 02:17:08;;;;;;;11.20;6.40;;;;;;;;;;5100970;28;20389;-81
2021/12/09 02:19:34;;;;;;;10.35;5.82;;;;;;;;;;5100977;28;20730;-82
2021/12/09 02:22:03;;;;;;;11.63;5.43;;;;;;;;;;5101370;28;20066;-80
2021/12/09 02:24:30;;;;;;;12.20;6.15;;;;;;;;;;5089094;28;20076;-82
2021/12/09 02:26:58;;;;;;;11.73;5.88;;;;;;;;;;5101025;28;20078;-81
2021/12/09 02:29:24;;;;;;;8.07;5.38;;;;;;;;;;5098493;28;20052;-81
2021/12/09 02:31:56;;;;;;;10.70;5.20;;;;;;;;;;5100137;28;20075;-81
2021/12/09 02:34:23;;;;;;;9.18;5.20;;;;;;;;;;5094755;28;20048;-82
2021/12/09 02:36:51;;;;;;;10.07;5.22;;;;;;;;;;5102163;28;20079;-82
2021/12/09 02:39:19;;;;;;;9.13;5.10;;;;;;;;;;5104809;28;20097;-83
2021/12/09 02:41:47;;;;;;;9.07;5.28;;;;;;;;;;5103389;28;20040;-81
2021/12/09 02:44:17;;;;;;;8.80;5.00;;;;;;;;;;5101977;28;20060;-81
2021/12/09 02:46:44;;;;;;;11.27;5.75;;;;;;;;;;5103303;28;20055;-82
2021/12/09 02:49:13;;;;;;;10.70;5.38;;;;;;;;;;5102648;28;20063;-80
2021/12/09 02:51:41;;;;;;;8.93;5.00;;;;;;;;;;5099631;28;20131;-81
2021/12/09 02:54:09;;;;;;;9.23;5.18;;;;;;;;;;5108857;28;20075;-81
2021/12/09 02:56:38;;;;;;;8.82;5.30;;;;;;;;;;5119781;28;20106;-83
2021/12/09 02:59:08;;;;;;;9.18;5.03;;;;;;;;;;5104176;28;20076;-80
2021/12/09 03:01:38;;;;;;;8.18;5.07;;;;;;;;;;5099290;28;20043;-79
2021/12/09 03:04:05;;;;;;;9.68;5.57;;;;;;;;;;5103160;28;20064;-80
2021/12/09 03:06:33;;;;;;;9.55;4.80;;;;;;;;;;5102878;28;20036;-82
2021/12/09 03:09:03;;;;;;;11.30;5.55;;;;;;;;;;5105048;28;20049;-81
2021/12/09 03:11:30;;;;;;;10.77;5.03;;;;;;;;;;5110079;28;20108;-81
2021/12/09 03:13:58;;;;;;;9.50;5.55;;;;;;;;;;5110422;28;20103;-81
2021/12/09 03:16:25;;;;;;;12.45;6.25;;;;;;;;;;5102592;28;20052;-80
2021/12/09 03:18:55;;;;;;;11.23;5.70;;;;;;;;;;5102782;28;20044;-82
2021/12/09 03:21:24;;;;;;;10.32;5.28;;;;;;;;;;5101649;28;20466;-81
2021/12/09 03:23:51;;;;;;;12.50;5.40;;;;;;;;;;5101936;28;20066;-81
2021/12/09 03:26:25;;;;;;;9.05;4.47;;;;;;;;;;5107137;28;20464;-86
2021/12/09 03:28:52;;;;;;;10.38;5.50;;;;;;;;;;5104389;28;20109;-80
2021/12/09 03:31:20;;;;;;;11.80;6.53;;;;;;;;;;5101224;28;20741;-80
2021/12/09 03:33:46;;;;;;;11.07;4.97;;;;;;;;;;5100448;28;20118;-81
2021/12/09 03:36:13;;;;;;;8.55;4.80;;;;;;;;;;5101617;28;20083;-81
2021/12/09 03:38:40;;;;;;;9.48;5.35;;;;;;;;;;5101416;28;20463;-80
2021/12/09 03:41:07;;;;;;;8.88;5.10;;;;;;;;;;5103220;28;20127;-80
2021/12/09 03:43:34;;;;;;;10.05;4.85;;;;;;;;;;5103627;28;20048;-80
2021/12/09 03:46:01;;;;;;;8.30;4.80;;;;;;;;;;5099313;28;20044;-80
2021/12/09 03:48:30;;;;;;;9.00;4.93;;;;;;;;;;5100327;28;20461;-80
2021/12/09 03:50:57;;;;;;;10.55;5.65;;;;;;;;;;5100671;28;20496;-82
2021/12/09 03:53:24;;;;;;;9.77;5.22;;;;;;;;;;5102054;28;20068;-81
2021/12/09 03:55:51;;;;;;;11.82;5.82;;;;;;;;;;5100082;28;20064;-80
2021/12/09 03:58:18;;;;;;;10.35;5.60;;;;;;;;;;5100419;28;20071;-80
2021/12/09 04:00:45;;;;;;;8.30;5.20;;;;;;;;;;5100305;28;20075;-82
2021/12/09 04:03:12;;;;;;;9.57;5.80;;;;;;;;;;5101410;28;20075;-81
2021/12/09 04:05:40;;;;;;;11.52;6.00;;;;;;;;;;5100628;28;20075;-81
2021/12/09 04:08:07;;;;;;;11.63;5.50;;;;;;;;;;5113009;28;20412;-84
2021/12/09 04:10:34;;;;;;;9.65;5.25;;;;;;;;;;5102899;28;20074;-81
2021/12/09 04:13:01;;;;;;;10.50;6.13;;;;;;;;;;5102081;28;20071;-82
2021/12/09 04:15:28;;;;;;;11.00;6.18;;;;;;;;;;5100900;28;20048;-82
2021/12/09 04:17:54;;;;;;;11.57;5.00;;;;;;;;;;5114840;28;20074;-82
2021/12/09 04:20:21;;;;;;;11.27;6.40;;;;;;;;;;5100914;28;20649;-80
2021/12/09 04:22:49;;;;;;;12.25;6.32;;;;;;;;;;5100403;28;20071;-83
2021/12/09 04:25:16;;;;;;;10.57;5.85;;;;;;;;;;5101362;28;20043;-83
2021/12/09 04:27:43;;;;;;;11.85;6.30;;;;;;;;;;5102822;28;20127;-82
2021/12/09 04:30:10;;;;;;;12.13;5.78;;;;;;;;;;5098946;28;20463;-81
2021/12/09 04:32:37;;;;;;;9.80;6.07;;;;;;;;;;5103227;28;20051;-82
2021/12/09 04:35:04;;;;;;;11.15;5.68;;;;;;;;;;5101161;28;20139;-82
2021/12/09 04:37:31;;;;;;;9.82;6.00;;;;;;;;;;5102909;28;20079;-81
2021/12/09 04:40:00;;;;;;;9.63;5.47;;;;;;;;;;5096877;28;20408;-82
2021/12/09 04:42:27;;;;;;;10.25;5.93;;;;;;;;;;5107436;28;20044;-81
2021/12/09 04:44:53;;;;;;;8.32;4.90;;;;;;;;;;5100965;28;20656;-82
2021/12/09 04:47:20;;;;;;;11.40;5.18;;;;;;;;;;5103812;28;20081;-81
2021/12/09 04:49:46;;;;;;;9.25;5.07;;;;;;;;;;5102515;28;20044;-82
2021/12/09 04:52:13;;;;;;;10.57;5.25;;;;;;;;;;5102488;28;20052;-81
2021/12/09 04:54:41;;;;;;;8.40;4.70;;;;;;;;;;5102605;28;20044;-81
2021/12/09 04:57:09;;;;;;;10.30;5.25;;;;;;;;;;5102056;28;20373;-81
2021/12/09 04:59:36;;;;;;;9.88;5.35;;;;;;;;;;5099876;28;20409;-83
2021/12/09 05:02:03;;;;;;;8.90;4.82;;;;;;;;;;5098719;28;20064;-82
2021/12/09 05:04:30;;;;;;;11.65;6.25;;;;;;;;;;5096220;28;20048;-81
2021/12/09 05:06:56;;;;;;;12.20;6.65;;;;;;;;;;5098284;28;20477;-83
2021/12/09 05:09:24;;;;;;;13.10;6.05;;;;;;;;;;5099267;28;20401;-80
2021/12/09 05:11:51;;;;;;;10.00;5.60;;;;;;;;;;5099677;28;20539;-84
2021/12/09 05:14:20;;;;;;;11.20;6.10;;;;;;;;;;5100151;28;20079;-82
2021/12/09 05:16:49;;;;;;;13.75;5.78;;;;;;;;;;5102600;28;20101;-82
2021/12/09 05:19:16;;;;;;;10.45;5.60;;;;;;;;;;5103428;28;20055;-82
2021/12/09 05:21:43;;;;;;;9.55;5.43;;;;;;;;;;5102851;28;20157;-84
2021/12/09 05:24:11;;;;;;;10.48;5.88;;;;;;;;;;5102711;28;20075;-83
2021/12/09 05:26:43;;;;;;;11.75;5.82;;;;;;;;;;5102206;28;20071;-82
2021/12/09 05:29:10;;;;;;;9.32;5.00;;;;;;;;;;5099353;28;20071;-83
2021/12/09 05:34:23;;;;;;;8.05;4.15;;;;;;;;;;5097199;28;20054;-83
2021/12/09 05:36:50;;;;;;;8.70;4.88;;;;;;;;;;5105398;28;20491;-82
2021/12/09 05:39:17;;;;;;;8.07;4.40;;;;;;;;;;5097457;28;20078;-82
2021/12/09 05:41:44;;;;;;;6.53;3.92;;;;;;;;;;5105726;28;20067;-83
2021/12/09 05:44:13;;;;;;;10.98;4.68;;;;;;;;;;5103770;28;20048;-86
2021/12/09 05:46:43;;;;;;;10.35;4.78;;;;;;;;;;5105358;28;20044;-84
2021/12/09 05:49:10;;;;;;;7.85;4.45;;;;;;;;;;5102345;28;20509;-83
2021/12/09 05:51:37;;;;;;;9.43;4.53;;;;;;;;;;5115861;28;20067;-83
2021/12/09 05:54:04;;;;;;;8.50;4.88;;;;;;;;;;5111137;28;20040;-82
2021/12/09 05:56:30;;;;;;;8.55;4.38;;;;;;;;;;5100798;28;20048;-84
2021/12/09 05:58:57;;;;;;;8.38;5.30;;;;;;;;;;5101419;28;20110;-84
2021/12/09 06:01:24;;;;;;;8.25;4.32;;;;;;;;;;5104195;28;20079;-82
2021/12/09 06:03:53;;;;;;;11.20;5.28;;;;;;;;;;5094404;28;20036;-83
2021/12/09 06:06:20;;;;;;;8.48;5.18;;;;;;;;;;5074719;28;20052;-84
2021/12/09 06:08:47;;;;;;;9.02;5.35;;;;;;;;;;5109970;28;20506;-84
2021/12/09 06:11:14;;;;;;;8.40;4.65;;;;;;;;;;5109557;28;20055;-83
2021/12/09 06:13:42;;;;;;;11.50;5.93;;;;;;;;;;5106302;28;20048;-83
2021/12/09 06:16:10;;;;;;;8.40;4.93;;;;;;;;;;5107303;28;20032;-87
2021/12/09 06:18:37;;;;;;;9.70;6.05;;;;;;;;;;5104413;28;20036;-84
2021/12/09 06:21:06;;;;;;;11.30;6.10;;;;;;;;;;5099613;28;20115;-85
2021/12/09 06:23:32;;;;;;;11.15;6.18;;;;;;;;;;5102835;28;20465;-84
2021/12/09 06:25:59;;;;;;;11.50;5.78;;;;;;;;;;5099350;28;20443;-84
2021/12/09 06:28:27;;;;;;;10.43;5.85;;;;;;;;;;5100020;28;20071;-84
2021/12/09 06:30:54;;;;;;;11.48;5.55;;;;;;;;;;5081259;28;20048;-85
2021/12/09 06:33:21;;;;;;;10.25;6.05;;;;;;;;;;5098690;28;20079;-84
2021/12/09 06:35:48;;;;;;;11.10;5.57;;;;;;;;;;5096306;28;20079;-85
2021/12/09 06:38:17;;;;;;;10.10;5.70;;;;;;;;;;5099429;28;20134;-84
2021/12/09 06:40:44;;;;;;;12.60;5.63;;;;;;;;;;5097737;28;20048;-84
2021/12/09 06:43:12;;;;;;;8.80;5.00;;;;;;;;;;5099239;28;20493;-85
2021/12/09 06:45:40;;;;;;;13.30;5.78;;;;;;;;;;5098490;28;20666;-84
2021/12/09 06:48:07;;;;;;;14.15;6.70;;;;;;;;;;5097556;28;20076;-84
2021/12/09 06:50:34;;;;;;;10.05;5.13;;;;;;;;;;5094964;28;20051;-84
2021/12/09 06:53:01;;;;;;;10.23;5.45;;;;;;;;;;5094933;28;20082;-84
2021/12/09 06:55:31;;;;;;;9.75;5.25;;;;;;;;;;5092940;28;20131;-85
2021/12/09 06:57:58;;;;;;;9.57;4.57;;;;;;;;;;5095713;28;20067;-85
2021/12/09 07:00:27;;;;;;;8.25;5.18;;;;;;;;;;5094998;28;20792;-86
2021/12/09 07:02:54;;;;;;;13.63;5.43;;;;;;;;;;5098505;28;20127;-84
2021/12/09 07:05:24;;;;;;;24.27;7.15;;;;;;;;;;5092586;28;20040;-84
2021/12/09 07:07:52;;;;;;;7.55;5.10;;;;;;;;;;5096578;28;20126;-84
2021/12/09 07:10:21;;;;;;;7.47;4.45;;;;;;;;;;5098406;28;20084;-86
2021/12/09 07:12:53;;;;;;;9.23;5.20;;;;;;;;;;5098186;28;20093;-85
2021/12/09 07:15:20;;;;;;;8.93;4.60;;;;;;;;;;5097914;28;20064;-85
2021/12/09 07:17:47;;;;;;;9.23;4.65;;;;;;;;;;5095352;28;20082;-86
2021/12/09 07:20:16;;;;;;;12.02;4.75;;;;;;;;;;5075236;28;20091;-85
2021/12/09 07:22:45;;;;;;;7.78;4.25;;;;;;;;;;5098944;28;20165;-84
2021/12/09 07:25:16;;;;;;;8.40;4.65;;;;;;;;;;5077244;28;20048;-86
2021/12/09 07:27:43;;;;;;;17.20;6.50;;;;;;;;;;5098909;28;20100;-84
2021/12/09 07:30:12;;;;;;;10.65;5.13;;;;;;;;;;5098128;28;20127;-83
2021/12/09 07:32:39;;;;;;;8.88;4.57;;;;;;;;;;5096148;28;20075;-86
2021/12/09 07:35:08;;;;;;;9.85;4.75;;;;;;;;;;5093145;28;20064;-85
2021/12/09 07:37:37;;;;;;;8.88;4.38;;;;;;;;;;5091975;28;20082;-82
2021/12/09 07:40:05;;;;;;;7.57;4.30;;;;;;;;;;5097534;28;20055;-84
2021/12/09 07:42:33;;;;;;;9.30;5.07;;;;;;;;;;5097855;28;20068;-85
2021/12/09 07:45:01;;;;;;;8.68;4.63;;;;;;;;;;5091775;28;20607;-85
2021/12/09 07:47:30;;;;;;;9.82;4.38;;;;;;;;;;5079682;28;20052;-86
2021/12/09 07:49:58;;;;;;;8.75;4.80;;;;;;;;;;5093373;28;20048;-85
2021/12/09 07:52:25;;;;;;;6.47;4.13;;;;;;;;;;5076367;28;20056;-85
2021/12/09 07:54:52;;;;;;;8.50;4.60;;;;;;;;;;5074865;28;20449;-87
2021/12/09 07:57:20;;;;;;;9.45;5.30;;;;;;;;;;5097018;28;20075;-85
2021/12/09 07:59:47;;;;;;;11.63;5.78;;;;;;;;;;5092511;28;20087;-86
2021/12/09 08:02:15;;;;;;;15.75;6.20;;;;;;;;;;5093170;28;20081;-85
2021/12/09 08:04:45;;;;;;;11.50;6.00;;;;;;;;;;5091109;28;20040;-86
2021/12/09 08:07:12;;;;;;;14.32;6.78;;;;;;;;;;5097747;28;20121;-85
2021/12/09 08:09:39;;;;;;;14.23;8.02;;;;;;;;;;5092325;28;20579;-85
2021/12/09 08:12:07;;;;;;;14.60;7.63;;;;;;;;;;5093027;28;20063;-82
2021/12/09 08:14:35;;;;;;;14.18;7.25;;;;;;;;;;5094866;28;20119;-85
2021/12/09 08:17:12;;;;;;;14.00;7.75;;;;;;;;;;5094137;28;20075;-86
2021/12/09 08:19:39;;;;;;;13.02;8.07;;;;;;;;;;5094213;28;20094;-83
2021/12/09 08:22:10;;;;;;;15.25;7.75;;;;;;;;;;5089360;28;20400;-88
2021/12/09 08:24:38;;;;;;;16.13;7.55;;;;;;;;;;5093438;28;20105;-85
2021/12/09 08:27:05;;;;;;;14.40;7.18;;;;;;;;;;5093524;28;20043;-84
2021/12/09 08:29:35;;;;;;;14.82;7.47;;;;;;;;;;5098267;28;20044;-84
2021/12/09 08:32:02;;;;;;;15.95;7.85;;;;;;;;;;5093874;28;20063;-84
2021/12/09 08:34:29;;;;;;;12.80;7.45;;;;;;;;;;5091408;28;20068;-85
2021/12/09 08:36:57;;;;;;;13.02;6.82;;;;;;;;;;5095261;28;20453;-85
2021/12/09 08:39:38;;;;;;;14.23;7.20;;;;;;;;;;5098890;28;20048;-84
2021/12/09 08:42:09;;;;;;;19.02;8.70;;;;;;;;;;5096992;28;20048;-86
2021/12/09 08:44:36;;;;;;;18.95;9.50;;;;;;;;;;5092885;28;20110;-84
2021/12/09 08:47:04;;;;;;;13.52;7.40;;;;;;;;;;5093467;28;20051;-85
2021/12/09 08:49:31;;;;;;;15.60;8.13;;;;;;;;;;5099238;28;20113;-85
2021/12/09 08:51:57;;;;;;;13.15;7.45;;;;;;;;;;5077912;28;20051;-83
2021/12/09 08:54:24;;;;;;;16.88;8.65;;;;;;;;;;5100384;28;20095;-83
2021/12/09 08:56:53;;;;;;;14.77;8.13;;;;;;;;;;5096159;28;20040;-85
2021/12/09 08:59:33;;;;;;;12.15;8.15;;;;;;;;;;5096486;28;20083;-85
2021/12/09 09:02:01;;;;;;;14.63;7.68;;;;;;;;;;5095929;28;20441;-84
2021/12/09 09:04:28;;;;;;;15.65;8.43;;;;;;;;;;5060567;28;20052;-84
2021/12/09 09:06:57;;;;;;;18.35;7.68;;;;;;;;;;5099496;28;20068;-85
2021/12/09 09:09:26;;;;;;;13.23;7.68;;;;;;;;;;5072691;28;20074;-83
2021/12/09 09:11:56;;;;;;;16.65;7.72;;;;;;;;;;5092545;28;20043;-83
2021/12/09 09:14:23;;;;;;;17.25;6.07;;;;;;;;;;5095903;28;20051;-82
2021/12/09 09:16:51;;;;;;;15.93;7.03;;;;;;;;;;5089704;28;20075;-84
2021/12/09 09:19:18;;;;;;;12.85;6.68;;;;;;;;;;5094763;28;20071;-83
2021/12/09 09:21:44;;;;;;;13.27;7.47;;;;;;;;;;5092255;28;20495;-85
2021/12/09 09:24:12;;;;;;;11.27;6.80;;;;;;;;;;5097105;28;20077;-83
2021/12/09 09:26:42;;;;;;;15.98;7.75;;;;;;;;;;5076824;28;20459;-84
2021/12/09 09:29:13;;;;;;;12.15;6.35;;;;;;;;;;5093499;28;20093;-86
2021/12/09 09:31:42;;;;;;;15.70;6.28;;;;;;;;;;5096976;28;20067;-88
2021/12/09 09:34:11;;;;;;;12.82;7.45;;;;;;;;;;5097801;28;20047;-85
2021/12/09 09:36:44;;;;;;;12.23;7.55;;;;;;;;;;5092546;28;20123;-85
2021/12/09 09:39:17;;;;;;;11.38;7.18;;;;;;;;;;5091148;28;20080;-85
2021/12/09 09:41:45;;;;;;;13.90;7.03;;;;;;;;;;5090690;28;20063;-86
2021/12/09 09:44:16;;;;;;;12.45;6.82;;;;;;;;;;5095787;28;20044;-85
2021/12/09 09:46:50;;;;;;;12.30;6.63;;;;;;;;;;5092134;28;20071;-86
2021/12/09 09:49:18;;;;;;;12.80;6.57;;;;;;;;;;5090768;28;20396;-86
2021/12/09 09:51:45;;;;;;;15.02;7.00;;;;;;;;;;5092651;28;20043;-85
2021/12/09 09:54:13;;;;;;;14.70;7.00;;;;;;;;;;5094090;28;20044;-85
2021/12/09 09:56:42;;;;;;;13.02;7.03;;;;;;;;;;5096377;28;20101;-84
2021/12/09 09:59:17;;;;;;;13.95;7.25;;;;;;;;;;5094246;28;20072;-85
2021/12/09 10:01:50;;;;;;;12.20;5.67;;;;;;;;;;5096858;28;20108;-84
2021/12/09 10:04:31;;;;;;;12.23;6.72;;;;;;;;;;5094596;28;20417;-85
2021/12/09 10:06:59;;;;;;;12.13;5.63;;;;;;;;;;5095126;28;20089;-85
2021/12/09 10:09:27;;;;;;;11.80;6.07;;;;;;;;;;5092140;28;20063;-85
2021/12/09 10:11:57;;;;;;;12.52;6.43;;;;;;;;;;5089553;28;20228;-85
2021/12/09 10:14:27;;;;;;;12.25;6.00;;;;;;;;;;5095157;28;20078;-83
2021/12/09 10:17:12;;;;;;;12.88;6.00;;;;;;;;;;5096087;28;20078;-85
2021/12/09 10:19:42;;;;;;;14.20;5.55;;;;;;;;;;5095584;28;20048;-85
2021/12/09 10:22:13;;;;;;;15.02;5.90;;;;;;;;;;5095527;28;20560;-86
2021/12/09 10:24:41;;;;;;;9.48;5.38;;;;;;;;;;5095459;28;20044;-86
2021/12/09 10:27:10;;;;;;;11.90;5.25;;;;;;;;;;5096708;28;20105;-85
2021/12/09 10:29:42;;;;;;;8.85;4.82;;;;;;;;;;5095345;28;20416;-85
2021/12/09 10:32:15;;;;;;;12.48;5.25;;;;;;;;;;5095429;28;20070;-85
2021/12/09 10:34:49;;;;;;;16.02;5.88;;;;;;;;;;5094058;28;20492;-86
2021/12/09 10:37:20;;;;;;;8.10;5.53;;;;;;;;;;5093297;28;20048;-86
2021/12/09 10:39:50;;;;;;;14.25;5.97;;;;;;;;;;5094674;28;20130;-82
2021/12/09 10:42:20;;;;;;;9.73;5.43;;;;;;;;;;5095758;28;20040;-85
2021/12/09 10:44:57;;;;;;;13.65;5.05;;;;;;;;;;5097467;28;20453;-87
2021/12/09 10:50:29;;;;;;;9.85;4.90;;;;;;;;;;5092515;28;20063;-86
2021/12/09 10:53:06;;;;;;;15.23;4.40;;;;;;;;;;5088145;28;20049;-86
2021/12/09 10:55:36;;;;;;;11.68;4.65;;;;;;;;;;5100661;28;20083;-86
2021/12/09 10:58:07;;;;;;;10.30;4.70;;;;;;;;;;5100004;28;20047;-85
2021/12/09 11:00:39;;;;;;;17.90;5.55;;;;;;;;;;5098084;28;20043;-84
2021/12/09 11:03:13;;;;;;;12.40;5.30;;;;;;;;;;5099143;28;20052;-86
2021/12/09 11:05:44;;;;;;;10.43;5.05;;;;;;;;;;5098791;28;20074;-86
2021/12/09 11:08:21;;;;;;;10.20;5.78;;;;;;;;;;5097044;28;20516;-86
2021/12/09 11:10:52;;;;;;;14.23;5.85;;;;;;;;;;5098589;28;20036;-86
2021/12/09 11:13:23;;;;;;;15.25;6.65;;;;;;;;;;5097603;28;20056;-86
2021/12/09 11:15:58;;;;;;;10.38;5.10;;;;;;;;;;5097885;28;20048;-86
2021/12/09 11:18:38;;;;;;;11.50;5.63;;;;;;;;;;5097373;28;20068;-86
2021/12/09 11:21:08;;;;;;;9.27;5.65;;;;;;;;;;5097295;28;20122;-85
2021/12/09 11:23:44;;;;;;;21.88;5.85;;;;;;;;;;5098526;28;20050;-87
2021/12/09 11:26:36;;;;;;;;;;;;;;;;;;5099555;28;20071;-87
2021/12/09 11:29:09;;;;;;;38.42;10.15;;;;;;;;;;5093929;28;19924;-86
2021/12/09 11:31:44;;;;;;;15.25;6.20;;;;;;;;;;5091119;28;20048;-85
2021/12/09 11:34:34;;;;;;;12.32;5.47;;;;;;;;;;5094680;28;20070;-87
2021/12/09 11:37:11;;;;;;;10.07;4.95;;;;;;;;;;5090170;28;20044;-87
2021/12/09 11:39:40;;;;;;;8.63;5.05;;;;;;;;;;5088704;28;20051;-87
2021/12/09 11:42:20;;;;;;;10.30;4.55;;;;;;;;;;5091439;28;20051;-87
2021/12/09 11:44:48;;;;;;;13.13;5.60;;;;;;;;;;5098116;28;20485;-87
2021/12/09 11:47:16;;;;;;;15.02;6.80;;;;;;;;;;5093877;28;20056;-87
2021/12/09 11:49:51;;;;;;;12.23;5.60;;;;;;;;;;5094440;28;20048;-88
2021/12/09 11:52:23;;;;;;;10.43;4.50;;;;;;;;;;5092787;28;20086;-87
2021/12/09 11:54:58;;;;;;;5.53;3.50;;;;;;;;;;5091376;28;20489;-87
2021/12/09 11:57:42;;;;;;;16.05;5.13;;;;;;;;;;5095062;28;20048;-86
2021/12/09 12:12:46;;;;;;;9.52;4.82;;;;;;;;;;5095309;28;20289;-87
2021/12/09 12:15:38;;;;;;;9.48;5.43;;;;;;;;;;5093423;28;20080;-88
2021/12/09 12:18:34;;;;;;;12.70;6.03;;;;;;;;;;5090420;28;20060;-86
2021/12/09 12:21:58;;;;;;;10.63;5.63;;;;;;;;;;5096198;28;20087;-86
2021/12/09 12:27:43;;;;;;;11.18;5.43;;;;;;;;;;5097217;28;20052;-86
2021/12/09 12:33:09;;;;;;;11.95;4.82;;;;;;;;;;5096372;28;20044;-86
2021/12/09 12:38:49;;;;;;;13.27;5.95;;;;;;;;;;5095788;28;20067;-85
2021/12/09 12:41:20;;;;;;;12.00;5.15;;;;;;;;;;5090540;28;20130;-86
2021/12/09 12:43:58;;;;;;;14.38;5.35;;;;;;;;;;5094330;28;20044;-87
2021/12/09 12:46:49;;;;;;;13.10;5.25;;;;;;;;;;5098306;28;20074;-87
2021/12/09 12:49:24;;;;;;;6.93;4.47;;;;;;;;;;5093890;28;20059;-87
2021/12/09 12:51:57;;;;;;;7.70;4.00;;;;;;;;;;5092346;28;20059;-88
2021/12/09 12:54:42;;;;;;;6.07;3.80;;;;;;;;;;5097048;28;20044;-86
2021/12/09 12:57:16;;;;;;;11.45;4.80;;;;;;;;;;5096035;28;20047;-87
2021/12/09 12:59:46;;;;;;;10.02;4.35;;;;;;;;;;5096170;28;20579;-87
2021/12/09 13:11:17;;;;;;;11.63;5.97;;;;;;;;;;5095660;28;20070;-86
2021/12/09 13:13:55;;;;;;;11.57;4.88;;;;;;;;;;5081995;28;20051;-89
2021/12/09 13:16:35;;;;;;;9.95;5.03;;;;;;;;;;5105554;28;20048;-88
2021/12/09 13:19:11;;;;;;;7.68;4.57;;;;;;;;;;5102894;28;20040;-86
2021/12/09 13:22:02;;;;;;;10.70;4.85;;;;;;;;;;5097845;28;20048;-85
2021/12/09 13:24:47;;;;;;;8.85;4.93;;;;;;;;;;5079544;28;20130;-88
2021/12/09 13:27:33;;;;;;;10.65;5.35;;;;;;;;;;5096387;28;20056;-90
2021/12/09 13:30:17;;;;;;;;;;;;;;;;;;5089861;28;20044;-87
2021/12/09 13:33:02;;;;;;;10.15;5.35;;;;;;;;;;5074697;28;19921;-87
2021/12/09 13:35:41;;;;;;;7.97;4.55;;;;;;;;;;5093977;28;20055;-89
2021/12/09 13:38:33;;;;;;;12.02;5.40;;;;;;;;;;5091299;28;20046;-87
2021/12/09 13:46:53;;;;;;;13.38;5.35;;;;;;;;;;5096043;28;20048;-87
2021/12/09 13:49:34;;;;;;;13.10;4.32;;;;;;;;;;5087254;28;20484;-87
2021/12/09 13:54:58;;;;;;;10.82;4.28;;;;;;;;;;5094489;28;20121;-88
2021/12/09 13:57:39;;;;;;;7.43;4.25;;;;;;;;;;5073241;28;20539;-88
2021/12/09 14:00:33;;;;;;;7.28;3.78;;;;;;;;;;5075030;28;20115;-88
2021/12/09 14:03:03;;;;;;;9.82;5.15;;;;;;;;;;5092608;28;20554;-87
2021/12/09 14:05:44;;;;;;;8.98;4.45;;;;;;;;;;5087970;28;20047;-88
2021/12/09 14:08:12;;;;;;;9.80;4.50;;;;;;;;;;5086744;28;20496;-88
2021/12/09 14:10:43;;;;;;;6.28;4.00;;;;;;;;;;5074948;28;20048;-89
2021/12/09 14:13:16;;;;;;;9.00;4.80;;;;;;;;;;5100608;28;20281;-87
2021/12/09 14:15:59;;;;;;;9.77;4.60;;;;;;;;;;5102974;28;20051;-87
2021/12/09 14:18:37;;;;;;;9.25;5.80;;;;;;;;;;5116250;28;20062;-88
2021/12/09 14:21:08;;;;;;;10.63;5.47;;;;;;;;;;5104823;28;20055;-87
2021/12/09 14:23:36;;;;;;;11.85;6.20;;;;;;;;;;5077300;28;20129;-87
2021/12/09 14:26:04;;;;;;;13.35;6.07;;;;;;;;;;5094244;28;20075;-87
2021/12/09 14:28:36;;;;;;;10.38;5.68;;;;;;;;;;5082465;28;20102;-87
2021/12/09 14:31:08;;;;;;;12.82;7.22;;;;;;;;;;5076084;28;20044;-88
2021/12/09 14:33:35;;;;;;;12.98;6.43;;;;;;;;;;5095669;28;20044;-87
2021/12/09 14:36:09;;;;;;;10.15;6.55;;;;;;;;;;5075968;28;20060;-88
2021/12/09 14:38:38;;;;;;;14.23;7.10;;;;;;;;;;5089509;28;20127;-88
2021/12/09 14:41:17;;;;;;;15.20;5.55;;;;;;;;;;5096082;28;20044;-87
2021/12/09 14:43:48;;;;;;;9.85;5.20;;;;;;;;;;5095855;28;20070;-87
2021/12/09 14:46:26;;;;;;;19.58;7.50;;;;;;;;;;5087517;28;20049;-89
2021/12/09 14:48:55;;;;;;;17.30;8.10;;;;;;;;;;5096294;28;20056;-86
2021/12/09 14:51:25;;;;;;;15.43;6.43;;;;;;;;;;5095853;28;20079;-87
2021/12/09 14:53:54;;;;;;;10.65;5.82;;;;;;;;;;5095818;28;20378;-90
2021/12/09 14:56:30;;;;;;;9.70;5.55;;;;;;;;;;5107340;28;20047;-87
2021/12/09 14:59:12;;;;;;;;;;;;;;;;;;5116037;28;20052;-90
2021/12/09 15:01:41;;;;;;;13.10;6.95;;;;;;;;;;5117834;28;19924;-88
2021/12/09 15:04:18;;;;;;;12.43;6.40;;;;;;;;;;5095900;28;20093;-89
2021/12/09 15:06:55;;;;;;;10.50;5.38;;;;;;;;;;5095966;28;20143;-89
2021/12/09 15:09:24;;;;;;;14.40;6.85;;;;;;;;;;5078003;28;20045;-91
2021/12/09 15:11:54;;;;;;;12.80;7.40;;;;;;;;;;5091365;28;20061;-88
2021/12/09 15:14:23;;;;;;;14.02;7.50;;;;;;;;;;5096184;28;20084;-88
2021/12/09 15:17:13;;;;;;;21.33;11.00;;;;;;;;;;5099724;28;20040;-90
2021/12/09 15:19:46;;;;;;;16.67;7.45;;;;;;;;;;5096260;28;20549;-88
2021/12/09 15:22:19;;;;;;;15.63;7.80;;;;;;;;;;5095463;28;20520;-89
2021/12/09 15:25:06;;;;;;;14.77;6.70;;;;;;;;;;5095783;28;20492;-89
2021/12/09 15:28:01;;;;;;;25.40;10.02;;;;;;;;;;5077862;28;20748;-90
2021/12/09 15:30:49;;;;;;;17.35;8.88;;;;;;;;;;5095276;28;20511;-89
2021/12/09 15:33:24;;;;;;;16.58;8.25;;;;;;;;;;5088829;28;20048;-87
2021/12/09 15:36:20;;;;;;;16.23;9.75;;;;;;;;;;5096444;28;20044;-88
2021/12/09 15:39:00;;;;;;;16.65;8.35;;;;;;;;;;5099601;28;20052;-87
2021/12/09 15:41:29;;;;;;;15.35;7.75;;;;;;;;;;5095646;28;20070;-88